Decoded Metar for KSUW (SUPERIOR in WI, USA) (IATA:SUW) | Meteo·Mobile Aviation Weather
aviador You're here:

KSUW Decoded Metar

SUPERIOR in WI, USA
Report Time2019-02-23 01:35:00
UTC Time2019-02-23 01:23:52
Flight Rules vfr VFR
WindCalm
Visibility9999 m
Phenomena:N/A
Clouds:Overcast 100 Hf
Expected CloudBase > 1,600 ft AGL from Temp-Dew spread
Ceiling10,000 ft
Temp-4°C (ISA -18)
Dew Point-8°C (74% RH)
AAT-6.9°C
QNH1027 hPa
Density Alt-1,926 ft
Elevation676 ft
Report Wrong Elevation
Raw Report
KSUW 230135Z AUTO 00000KT 10SM OVC100 M04/M08 A3034 RMK AO2
T10371085=

Extra information for KSUW:More info

Metar Taf Metar & Taf Last 4 Metars F.Rules Stats Wind Profile Meteogram Temp Stats Airport Information Weather charts Add Link Nearby VenuesMetar ALERT Operation Metar Decoded Social comments

AIRNAV info for KSUW